createdAt,value
2023-01-07T06:48:59.635Z,31.00
2023-01-07T06:54:01.869Z,28.62
2023-01-07T06:59:03.997Z,28.93
2023-01-07T07:04:06.056Z,33.75
2023-01-07T07:09:08.219Z,32.80
2023-01-07T07:14:10.350Z,34.80
2023-01-07T07:19:12.421Z,37.50
2023-01-07T07:24:14.918Z,32.38
2023-01-07T07:29:17.234Z,31.97
2023-01-07T07:34:19.321Z,27.67
2023-01-07T07:39:21.668Z,32.15
2023-01-07T07:44:26.095Z,30.48
2023-01-07T07:49:28.245Z,32.67
2023-01-07T07:54:30.327Z,30.10
2023-01-07T07:59:32.417Z,34.15
2023-01-07T08:04:34.969Z,32.43
2023-01-07T08:09:37.501Z,33.90
2023-01-07T08:14:39.583Z,34.13
2023-01-07T08:19:41.632Z,30.03
2023-01-07T08:24:44.250Z,40.63
2023-01-07T08:29:46.313Z,33.83
2023-01-07T08:34:48.767Z,34.58
2023-01-07T08:39:50.812Z,35.83
2023-01-07T08:44:52.851Z,37.50
2023-01-07T08:49:55.447Z,38.05
2023-01-07T08:54:57.610Z,35.23
2023-01-07T08:59:59.666Z,29.33
2023-01-07T09:05:01.789Z,30.62
2023-01-07T09:10:04.748Z,31.47
2023-01-07T09:15:07.592Z,25.77
2023-01-07T09:20:10.350Z,28.77
2023-01-07T09:25:13.091Z,26.10
2023-01-07T09:30:16.297Z,25.13
2023-01-07T09:35:18.602Z,25.25
2023-01-07T09:40:32.199Z,25.20
2023-01-07T09:45:46.489Z,25.83
2023-01-07T09:50:57.542Z,23.15
2023-01-07T09:56:12.496Z,23.17
2023-01-07T10:01:38.901Z,24.33
2023-01-07T10:07:02.405Z,21.10
2023-01-07T10:12:31.956Z,24.42
2023-01-07T10:17:39.983Z,24.55
2023-01-07T10:23:00.660Z,24.53
2023-01-07T10:28:13.333Z,24.23
2023-01-07T10:33:28.446Z,23.35
2023-01-07T10:38:35.426Z,25.50
2023-01-07T10:44:08.944Z,25.08
2023-01-07T10:49:19.859Z,21.80
2023-01-07T10:54:28.018Z,22.87
2023-01-07T10:59:30.691Z,20.53
2023-01-07T11:04:32.827Z,18.08
2023-01-07T11:09:42.356Z,19.35
2023-01-07T11:14:46.514Z,19.83
2023-01-07T11:19:51.604Z,17.58
2023-01-07T11:24:54.994Z,18.08
2023-01-07T11:30:27.226Z,16.40
2023-01-07T11:35:29.633Z,14.93
2023-01-07T11:40:32.944Z,14.70
2023-01-07T11:46:19.815Z,13.67
2023-01-07T11:51:22.627Z,14.07
2023-01-07T11:56:30.778Z,15.18
2023-01-07T12:01:51.897Z,16.45
2023-01-07T12:06:57.598Z,9.93
2023-01-07T12:12:31.347Z,11.73
2023-01-07T12:17:35.763Z,10.57
2023-01-07T12:23:09.678Z,8.50
2023-01-07T12:28:16.447Z,8.25
2023-01-07T12:33:18.533Z,9.05
2023-01-07T12:38:47.557Z,9.47
2023-01-07T12:43:58.595Z,11.33
2023-01-07T12:49:05.025Z,9.68
2023-01-07T12:54:33.467Z,10.38
2023-01-07T12:59:50.085Z,11.97
2023-01-07T13:05:05.788Z,12.52
2023-01-07T13:10:24.846Z,14.75
2023-01-07T13:15:36.085Z,11.57
2023-01-07T13:20:47.017Z,11.27
2023-01-07T13:26:18.350Z,10.63
2023-01-07T13:31:42.847Z,11.17
2023-01-07T13:37:06.793Z,8.77
2023-01-07T13:42:17.728Z,9.80
2023-01-07T13:47:22.772Z,8.02
2023-01-07T13:52:31.396Z,11.37
2023-01-07T13:57:36.195Z,15.35
2023-01-07T14:02:53.704Z,16.77
2023-01-07T14:08:04.043Z,15.57
2023-01-07T14:13:25.287Z,15.15
2023-01-07T14:18:48.363Z,19.12
2023-01-07T14:24:00.891Z,18.43
2023-01-07T14:29:15.060Z,17.63
2023-01-07T14:34:24.630Z,19.30
2023-01-07T14:39:30.965Z,17.70
2023-01-07T14:44:33.056Z,16.80
2023-01-07T14:49:50.194Z,19.02
2023-01-07T14:55:40.008Z,20.58
2023-01-07T15:01:09.486Z,21.43
2023-01-07T15:06:35.084Z,22.52
2023-01-07T15:11:59.873Z,25.08
2023-01-07T15:17:02.606Z,25.73
2023-01-07T15:22:23.325Z,23.60
2023-01-07T15:27:36.742Z,24.77
2023-01-07T15:32:54.106Z,27.52
2023-01-07T15:37:57.177Z,31.00
2023-01-07T15:42:59.602Z,34.35
2023-01-07T15:48:07.885Z,32.65
2023-01-07T15:53:12.899Z,29.47
2023-01-07T15:58:22.114Z,30.92
2023-01-07T16:03:25.246Z,28.20
2023-01-07T16:08:31.015Z,36.47
2023-01-07T16:13:35.135Z,32.17
2023-01-07T16:18:37.266Z,36.40
2023-01-07T16:23:40.812Z,28.75
2023-01-07T16:28:47.937Z,31.57
2023-01-07T16:33:53.193Z,34.20
2023-01-07T16:38:58.896Z,33.10
2023-01-07T16:44:01.189Z,31.63
2023-01-07T16:49:09.100Z,32.20
2023-01-07T16:54:21.352Z,29.90
2023-01-07T16:59:28.721Z,27.30
2023-01-07T17:04:31.141Z,29.50
2023-01-07T17:09:38.964Z,32.45
2023-01-07T17:14:41.054Z,35.28
2023-01-07T17:19:52.284Z,36.13
2023-01-07T17:25:03.710Z,37.22
2023-01-07T17:30:06.696Z,35.42
2023-01-07T17:35:20.461Z,34.70
2023-01-07T17:40:22.677Z,35.33
2023-01-07T17:45:24.920Z,37.22
2023-01-07T17:50:34.744Z,37.83
2023-01-07T17:55:36.840Z,39.17
2023-01-07T18:00:40.907Z,37.15
2023-01-07T18:05:43.049Z,36.83
2023-01-07T18:11:04.390Z,41.17
2023-01-07T18:16:07.073Z,39.22
2023-01-07T18:21:11.513Z,37.60
2023-01-07T18:26:14.015Z,37.23
2023-01-07T18:31:16.269Z,36.72
2023-01-07T18:36:18.377Z,38.58
2023-01-07T18:41:20.618Z,41.90
2023-01-07T18:46:22.705Z,42.23
2023-01-07T18:51:24.835Z,36.10
2023-01-07T18:56:26.994Z,46.33
2023-01-07T19:01:29.253Z,32.40
2023-01-07T19:06:31.474Z,33.92
2023-01-07T19:11:33.635Z,32.47
2023-01-07T19:16:37.715Z,34.97
2023-01-07T19:21:41.992Z,37.60
2023-01-07T19:26:44.462Z,35.95
2023-01-07T19:31:47.087Z,34.90
2023-01-07T19:36:49.245Z,37.37
2023-01-07T19:41:51.622Z,37.03
2023-01-07T19:46:53.737Z,37.03
2023-01-07T19:51:56.193Z,35.07
2023-01-07T19:56:58.310Z,34.13
